createdAt,value
2019-03-27T00:01:13.785Z,102027.30
2019-03-27T00:03:43.618Z,102021.83
2019-03-27T00:06:14.364Z,102017.89
2019-03-27T00:08:44.702Z,102020.09
2019-03-27T00:11:16.149Z,102007.56
2019-03-27T00:13:46.195Z,102011.00
2019-03-27T00:16:16.550Z,102011.88
2019-03-27T00:18:46.383Z,102007.67
2019-03-27T00:21:16.269Z,102010.19
2019-03-27T00:23:47.818Z,102019.27
2019-03-27T00:26:17.717Z,102013.19
2019-03-27T00:28:47.707Z,102008.44
2019-03-27T00:31:20.450Z,102006.09
2019-03-27T00:33:51.183Z,102003.95
2019-03-27T00:36:21.276Z,102002.64
2019-03-27T00:38:51.845Z,101994.32
2019-03-27T00:41:22.107Z,101990.43
2019-03-27T00:43:52.579Z,102000.00
2019-03-27T00:46:23.193Z,102001.70
2019-03-27T00:48:53.034Z,102000.34
2019-03-27T00:51:23.274Z,101992.07
2019-03-27T00:53:53.132Z,101987.27
2019-03-27T00:56:22.939Z,101985.55
2019-03-27T00:58:53.229Z,101989.12
2019-03-27T01:01:23.080Z,101989.45
2019-03-27T01:03:52.936Z,101988.95
2019-03-27T01:06:23.245Z,101986.33
2019-03-27T01:08:53.992Z,101997.06
2019-03-27T01:11:23.879Z,101992.34
2019-03-27T01:13:54.167Z,101996.83
2019-03-27T01:16:24.088Z,101995.67
2019-03-27T01:18:53.911Z,102001.96
2019-03-27T01:21:24.124Z,102002.99
2019-03-27T01:23:53.995Z,102001.33
2019-03-27T01:26:23.842Z,101997.81
2019-03-27T01:28:56.186Z,101993.88
2019-03-27T01:31:26.044Z,102003.27
2019-03-27T01:33:55.974Z,102001.03
2019-03-27T01:36:26.313Z,102008.38
2019-03-27T01:38:56.162Z,102009.83
2019-03-27T01:41:25.975Z,102008.22
2019-03-27T01:43:56.249Z,102008.41
2019-03-27T01:46:26.093Z,102006.58
2019-03-27T01:48:55.949Z,102016.83
2019-03-27T01:51:26.216Z,102020.08
2019-03-27T01:53:56.089Z,102009.28
2019-03-27T01:56:25.926Z,102013.58
2019-03-27T01:58:56.147Z,102011.05
2019-03-27T02:01:25.999Z,102013.19
2019-03-27T02:03:55.806Z,102006.87
2019-03-27T02:06:26.113Z,102013.92
2019-03-27T02:08:55.965Z,102010.08
2019-03-27T02:11:27.442Z,102011.19
2019-03-27T02:13:57.699Z,102011.00
2019-03-27T02:16:27.545Z,102006.70
2019-03-27T02:18:57.357Z,102006.95
2019-03-27T02:21:27.662Z,102012.88
2019-03-27T02:23:57.567Z,102010.20
2019-03-27T02:26:27.390Z,102015.21
2019-03-27T02:28:57.610Z,102015.27
2019-03-27T02:31:27.459Z,102010.77
2019-03-27T02:33:57.267Z,102020.44
2019-03-27T02:36:28.582Z,102009.97
2019-03-27T02:38:58.440Z,102008.84
2019-03-27T02:41:28.249Z,102018.23
2019-03-27T02:43:58.059Z,102017.61
2019-03-27T02:46:27.993Z,102010.38
2019-03-27T02:48:58.194Z,102019.59
2019-03-27T02:51:28.009Z,102023.22
2019-03-27T02:53:57.881Z,102021.95
2019-03-27T02:56:28.095Z,102028.44
2019-03-27T02:58:57.976Z,102023.84
2019-03-27T03:01:27.855Z,102015.12
2019-03-27T03:03:58.089Z,102020.56
2019-03-27T03:06:27.942Z,102019.55
2019-03-27T03:08:57.787Z,102023.43
2019-03-27T03:11:28.003Z,102022.90
2019-03-27T03:13:58.697Z,102015.61
2019-03-27T03:16:41.301Z,102015.98
2019-03-27T03:19:00.436Z,102011.27
2019-03-27T03:21:30.257Z,102012.45
2019-03-27T03:24:00.089Z,102015.81
2019-03-27T03:26:29.907Z,102019.16
2019-03-27T03:28:59.728Z,102019.63
2019-03-27T03:34:05.449Z,102008.72
2019-03-27T03:36:35.406Z,102013.95
2019-03-27T03:39:06.770Z,102013.03
2019-03-27T03:41:36.649Z,102012.68
2019-03-27T03:44:09.507Z,102013.44
2019-03-27T03:46:39.759Z,102018.11
2019-03-27T03:49:09.608Z,102021.14
2019-03-27T03:51:39.450Z,102022.40
2019-03-27T03:54:09.911Z,102022.58
2019-03-27T03:56:41.777Z,102017.16
2019-03-27T03:59:13.115Z,102018.97
2019-03-27T04:01:44.735Z,102021.05
2019-03-27T04:04:15.053Z,102023.68
2019-03-27T04:06:44.905Z,102027.62
2019-03-27T04:09:15.154Z,102031.51
2019-03-27T04:11:45.004Z,102031.80
2019-03-27T04:14:14.812Z,102032.33
2019-03-27T04:16:45.937Z,102034.08
2019-03-27T04:19:15.792Z,102027.19
2019-03-27T04:21:45.603Z,102025.20
2019-03-27T04:24:15.941Z,102022.69
2019-03-27T04:26:45.829Z,102029.91
2019-03-27T04:29:15.666Z,102025.77
2019-03-27T04:31:45.821Z,102030.84
2019-03-27T04:34:15.664Z,102027.23
2019-03-27T04:36:45.470Z,102029.58
2019-03-27T04:39:15.770Z,102035.48
2019-03-27T04:41:45.698Z,102033.10
2019-03-27T04:44:15.511Z,102036.70
2019-03-27T04:46:46.107Z,102041.62
2019-03-27T04:49:16.013Z,102035.53
2019-03-27T04:51:45.873Z,102036.11
2019-03-27T04:54:16.183Z,102044.56
2019-03-27T04:56:46.039Z,102036.98
2019-03-27T04:59:15.856Z,102040.92
2019-03-27T05:01:46.190Z,102044.09
2019-03-27T05:04:16.524Z,102043.98
2019-03-27T05:06:46.343Z,102044.33
2019-03-27T05:09:16.741Z,102043.34
2019-03-27T05:11:46.590Z,102049.52
2019-03-27T05:14:16.397Z,102043.01
2019-03-27T05:16:46.551Z,102048.88
2019-03-27T05:19:17.375Z,102052.88
2019-03-27T05:21:47.266Z,102060.55
2019-03-27T05:24:17.511Z,102055.30
2019-03-27T05:26:47.403Z,102059.29
2019-03-27T05:29:17.212Z,102063.22
2019-03-27T05:31:47.402Z,102061.87
2019-03-27T05:34:17.267Z,102060.94
2019-03-27T05:36:47.084Z,102061.83
2019-03-27T05:39:17.422Z,102053.26
2019-03-27T05:41:47.310Z,102066.34
2019-03-27T05:44:17.132Z,102066.13
2019-03-27T05:46:47.346Z,102068.44
2019-03-27T05:49:17.254Z,102067.59
2019-03-27T05:51:47.095Z,102076.31
2019-03-27T05:54:17.281Z,102080.25
2019-03-27T05:56:47.156Z,102082.48
2019-03-27T05:59:17.031Z,102086.45
2019-03-27T06:01:47.147Z,102086.48
2019-03-27T06:04:17.192Z,102084.66
2019-03-27T06:06:47.024Z,102087.37
2019-03-27T06:09:17.159Z,102083.58
2019-03-27T06:11:47.065Z,102085.58
2019-03-27T06:14:16.931Z,102086.37
2019-03-27T06:16:47.174Z,102093.36
2019-03-27T06:19:17.043Z,102091.88
2019-03-27T06:21:46.983Z,102090.09
2019-03-27T06:24:17.330Z,102086.89
2019-03-27T06:26:47.222Z,102089.89
2019-03-27T06:29:17.180Z,102092.48
2019-03-27T06:31:47.480Z,102089.96
2019-03-27T06:34:17.371Z,102097.42
2019-03-27T06:36:47.223Z,102102.34
2019-03-27T06:39:17.491Z,102097.49
2019-03-27T06:41:47.376Z,102099.48
2019-03-27T06:44:17.588Z,102098.68
2019-03-27T06:46:47.883Z,102096.22
2019-03-27T06:49:17.774Z,102102.29
2019-03-27T06:51:47.610Z,102105.02
2019-03-27T06:54:19.772Z,102113.52
2019-03-27T06:56:49.669Z,102118.14
2019-03-27T06:59:19.526Z,102111.80
2019-03-27T07:01:49.727Z,102121.02
2019-03-27T07:04:19.711Z,102124.22
2019-03-27T07:06:49.555Z,102119.37
2019-03-27T07:09:19.890Z,102115.02
2019-03-27T07:11:49.788Z,102116.39
2019-03-27T07:14:19.647Z,102109.24
2019-03-27T07:16:49.868Z,102111.24
2019-03-27T07:19:19.770Z,102122.51
2019-03-27T07:21:49.624Z,102113.98
2019-03-27T07:24:21.364Z,102122.89
2019-03-27T07:26:51.537Z,102120.72
2019-03-27T07:29:21.444Z,102132.34
2019-03-27T07:31:51.666Z,102126.05
2019-03-27T07:34:21.646Z,102122.81
2019-03-27T07:36:51.503Z,102121.22
2019-03-27T07:39:21.661Z,102120.76
2019-03-27T07:41:51.583Z,102120.26
2019-03-27T07:44:21.428Z,102125.19
2019-03-27T07:46:52.730Z,102127.11
2019-03-27T07:49:22.611Z,102130.98
2019-03-27T07:51:52.567Z,102133.92
2019-03-27T07:54:23.065Z,102133.45
2019-03-27T07:56:53.021Z,102123.36
2019-03-27T07:59:22.895Z,102129.22
2019-03-27T08:01:53.159Z,102137.12
2019-03-27T08:04:23.050Z,102131.80
2019-03-27T08:06:53.032Z,102133.64
2019-03-27T08:09:23.295Z,102140.52
2019-03-27T08:11:53.201Z,102140.73
2019-03-27T08:14:23.130Z,102136.84
2019-03-27T08:16:53.334Z,102133.88
2019-03-27T08:19:23.213Z,102140.95
2019-03-27T08:21:53.051Z,102141.92
2019-03-27T08:24:23.248Z,102137.58
2019-03-27T08:26:54.051Z,102142.84
2019-03-27T08:29:23.859Z,102147.70
2019-03-27T08:31:54.174Z,102148.97
2019-03-27T08:34:24.068Z,102148.13
2019-03-27T08:36:54.028Z,102148.53
2019-03-27T08:39:24.306Z,102134.23
2019-03-27T08:41:54.213Z,102139.16
2019-03-27T08:44:24.080Z,102141.84
2019-03-27T08:46:54.272Z,102149.16
2019-03-27T08:49:24.203Z,102142.10
2019-03-27T08:51:54.056Z,102143.92
2019-03-27T08:54:24.277Z,102145.00
2019-03-27T08:56:54.262Z,102149.38
2019-03-27T08:59:24.222Z,102142.79
2019-03-27T09:01:54.704Z,102152.64
2019-03-27T09:04:24.974Z,102154.04
2019-03-27T09:06:54.906Z,102154.62
2019-03-27T09:09:26.879Z,102154.38
2019-03-27T09:11:56.853Z,102147.94
2019-03-27T09:14:27.173Z,102159.45
2019-03-27T09:16:58.141Z,102156.95
2019-03-27T09:19:35.562Z,102152.33
2019-03-27T09:21:59.841Z,102153.89
2019-03-27T09:24:30.012Z,102152.46
2019-03-27T09:26:59.916Z,102155.55
2019-03-27T09:29:30.756Z,102148.27
2019-03-27T09:32:01.012Z,102148.21
2019-03-27T09:34:30.901Z,102147.28
2019-03-27T09:37:00.884Z,102153.10
2019-03-27T09:39:31.175Z,102146.34
2019-03-27T09:42:01.062Z,102139.43
2019-03-27T09:44:30.932Z,102141.23
2019-03-27T09:47:02.973Z,102139.92
2019-03-27T09:49:32.895Z,102138.47
2019-03-27T09:52:03.848Z,102136.73
2019-03-27T09:54:33.867Z,102133.61
2019-03-27T09:57:03.763Z,102128.34
2019-03-27T09:59:34.078Z,102118.64
2019-03-27T10:02:06.943Z,102128.58
2019-03-27T10:04:36.908Z,102118.02
2019-03-27T10:07:06.761Z,102129.21
2019-03-27T10:09:36.609Z,102132.09
2019-03-27T10:12:09.683Z,102129.63
2019-03-27T10:14:39.609Z,102131.89
2019-03-27T10:17:09.442Z,102127.93
2019-03-27T10:19:39.653Z,102125.44
2019-03-27T10:22:09.509Z,102124.88
2019-03-27T10:24:39.403Z,102118.53
2019-03-27T10:27:09.587Z,102118.86
2019-03-27T10:29:39.437Z,102124.13
2019-03-27T10:32:09.428Z,102125.69
2019-03-27T10:34:39.591Z,102117.29
2019-03-27T10:37:09.425Z,102128.23
2019-03-27T10:39:39.288Z,102117.16
2019-03-27T10:42:09.450Z,102121.78
2019-03-27T10:44:39.409Z,102117.65
2019-03-27T10:47:09.211Z,102128.80
2019-03-27T10:49:39.433Z,102126.48
2019-03-27T10:52:09.248Z,102120.02
2019-03-27T10:54:39.103Z,102134.95
2019-03-27T10:57:09.346Z,102135.87
2019-03-27T10:59:39.162Z,102129.19
2019-03-27T11:02:09.021Z,102138.18
2019-03-27T11:04:39.195Z,102134.86
2019-03-27T11:07:09.051Z,102140.50
2019-03-27T11:09:38.883Z,102128.84
2019-03-27T11:12:09.127Z,102127.46
2019-03-27T11:14:39.052Z,102126.45
2019-03-27T11:17:08.815Z,102118.15
2019-03-27T11:19:38.951Z,102119.70
2019-03-27T11:22:08.794Z,102124.94
2019-03-27T11:24:38.626Z,102118.90
2019-03-27T11:27:08.766Z,102116.98
2019-03-27T11:29:38.623Z,102114.77
2019-03-27T11:32:08.415Z,102112.64
2019-03-27T11:34:39.420Z,102106.84
2019-03-27T11:37:09.204Z,102105.52
2019-03-27T11:39:38.978Z,102108.52
2019-03-27T11:42:09.039Z,102105.27
2019-03-27T11:44:38.834Z,102098.81
2019-03-27T11:47:08.636Z,102100.61
2019-03-27T11:52:07.656Z,102101.55
2019-03-27T11:54:37.441Z,102093.95
2019-03-27T11:57:07.585Z,102104.50
2019-03-27T11:59:37.473Z,102104.12
2019-03-27T12:02:07.308Z,102109.75
2019-03-27T12:04:38.386Z,102104.59
2019-03-27T12:07:08.252Z,102097.48
2019-03-27T12:09:38.014Z,102098.18
2019-03-27T12:12:08.074Z,102097.38
2019-03-27T12:14:37.908Z,102099.86
2019-03-27T12:17:07.702Z,102098.50
2019-03-27T12:19:38.092Z,102093.46
2019-03-27T12:22:07.899Z,102096.80
2019-03-27T12:24:37.771Z,102097.72
2019-03-27T12:27:08.171Z,102101.05
2019-03-27T12:29:38.001Z,102093.91
2019-03-27T12:32:07.799Z,102091.02
2019-03-27T12:34:37.938Z,102086.99
2019-03-27T12:37:09.511Z,102094.58
2019-03-27T12:39:40.763Z,102094.33
2019-03-27T12:42:10.831Z,102090.03
2019-03-27T12:44:40.650Z,102097.89
2019-03-27T12:47:10.737Z,102096.30
2019-03-27T12:49:40.724Z,102091.58
2019-03-27T12:52:10.664Z,102093.48
2019-03-27T12:54:40.735Z,102092.19
2019-03-27T12:57:10.573Z,102098.97
2019-03-27T12:59:40.411Z,102104.89
2019-03-27T13:02:10.521Z,102104.11
2019-03-27T13:04:40.301Z,102101.88
2019-03-27T13:07:10.175Z,102105.27
2019-03-27T13:09:40.254Z,102101.30
2019-03-27T13:12:10.115Z,102098.44
2019-03-27T13:14:39.933Z,102095.72
2019-03-27T13:17:10.016Z,102090.92
2019-03-27T13:19:39.806Z,102084.97
2019-03-27T13:22:09.621Z,102089.73
2019-03-27T13:24:39.811Z,102097.01
2019-03-27T13:27:09.694Z,102091.93
2019-03-27T13:29:39.501Z,102090.83
2019-03-27T13:32:09.573Z,102087.06
2019-03-27T13:34:39.410Z,102090.05
2019-03-27T13:37:11.522Z,102085.37
2019-03-27T13:39:41.654Z,102086.80
2019-03-27T13:42:11.450Z,102081.28
2019-03-27T13:45:09.940Z,102086.08
2019-03-27T13:47:40.816Z,102074.70
2019-03-27T13:50:13.183Z,102076.80
2019-03-27T13:52:44.633Z,102059.97
2019-03-27T13:55:17.784Z,102060.73
2019-03-27T13:57:49.316Z,102051.16
2019-03-27T14:00:29.247Z,102055.14
2019-03-27T14:02:59.538Z,102049.92
2019-03-27T14:10:39.157Z,102062.28
2019-03-27T14:17:06.247Z,102056.10
2019-03-27T14:19:36.735Z,102058.61
2019-03-27T14:22:24.878Z,102059.59
2019-03-27T14:25:04.742Z,102064.63
2019-03-27T14:27:35.480Z,102066.53
2019-03-27T14:30:10.198Z,102066.48
2019-03-27T14:32:40.090Z,102072.74
2019-03-27T14:35:10.445Z,102071.65
2019-03-27T14:37:41.476Z,102072.66
2019-03-27T14:40:24.346Z,102068.25
2019-03-27T14:42:56.141Z,102071.80
2019-03-27T14:45:26.327Z,102067.02
2019-03-27T14:47:57.841Z,102064.52
2019-03-27T14:50:28.276Z,102058.84
2019-03-27T14:52:58.625Z,102061.14
2019-03-27T14:55:29.186Z,102059.05
2019-03-27T14:58:04.788Z,102057.25
2019-03-27T15:00:36.380Z,102053.07
2019-03-27T15:03:07.109Z,102050.62
2019-03-27T15:05:37.843Z,102045.38
2019-03-27T15:08:08.929Z,102035.81
2019-03-27T15:10:40.525Z,102040.30
2019-03-27T15:13:11.093Z,102039.28
2019-03-27T15:15:41.053Z,102035.59
2019-03-27T15:18:16.528Z,102034.73
2019-03-27T15:20:46.908Z,102029.63
2019-03-27T15:23:18.369Z,102035.75
2019-03-27T15:25:49.605Z,102040.30
2019-03-27T15:28:19.677Z,102043.08
2019-03-27T15:30:49.806Z,102039.56
2019-03-27T15:33:22.731Z,102041.73
2019-03-27T15:35:54.638Z,102049.95
2019-03-27T15:38:25.234Z,102040.66
2019-03-27T15:40:55.932Z,102041.88
2019-03-27T15:43:27.021Z,102034.84
2019-03-27T15:45:57.235Z,102030.50
2019-03-27T15:48:27.576Z,102032.39
2019-03-27T15:50:59.039Z,102033.72
2019-03-27T15:53:31.837Z,102033.94
2019-03-27T15:56:05.510Z,102034.84
2019-03-27T15:58:35.527Z,102041.66
2019-03-27T16:01:07.392Z,102051.31
2019-03-27T16:03:37.688Z,102044.36
2019-03-27T16:06:07.787Z,102040.02
2019-03-27T16:08:38.001Z,102046.19
2019-03-27T16:11:08.674Z,102058.49
2019-03-27T16:13:38.774Z,102060.59
2019-03-27T16:16:09.056Z,102058.14
2019-03-27T16:18:39.476Z,102058.14
2019-03-27T16:21:09.826Z,102066.53
2019-03-27T16:23:40.080Z,102063.18
2019-03-27T16:26:11.024Z,102067.29
2019-03-27T16:28:41.189Z,102070.05
2019-03-27T16:31:12.536Z,102066.63
2019-03-27T16:33:43.967Z,102066.23
2019-03-27T16:36:14.671Z,102071.55
2019-03-27T16:38:44.878Z,102067.49
2019-03-27T16:41:17.121Z,102065.37
2019-03-27T16:43:47.694Z,102071.24
2019-03-27T16:46:18.838Z,102071.61
2019-03-27T16:48:50.338Z,102069.88
2019-03-27T16:51:20.749Z,102080.08
2019-03-27T16:53:51.022Z,102080.62
2019-03-27T16:56:22.200Z,102071.23
2019-03-27T16:58:52.704Z,102073.16
2019-03-27T17:01:23.244Z,102079.28
2019-03-27T17:03:53.500Z,102079.30
2019-03-27T17:06:24.299Z,102079.06
2019-03-27T17:08:54.989Z,102085.01
2019-03-27T17:11:25.204Z,102086.57
2019-03-27T17:13:55.747Z,102081.37
2019-03-27T17:16:26.027Z,102095.27
2019-03-27T17:18:56.517Z,102092.97
2019-03-27T17:21:27.125Z,102093.48
2019-03-27T17:23:57.503Z,102097.50
2019-03-27T17:26:27.768Z,102101.05
2019-03-27T17:28:58.519Z,102098.41
2019-03-27T17:31:29.091Z,102099.11
2019-03-27T17:33:59.350Z,102102.02
2019-03-27T17:36:31.634Z,102103.97
2019-03-27T17:39:02.181Z,102107.13
2019-03-27T17:41:32.514Z,102106.77
2019-03-27T17:44:04.895Z,102111.43
2019-03-27T17:46:35.350Z,102115.67
2019-03-27T17:49:06.520Z,102120.72
2019-03-27T17:51:40.370Z,102125.09
2019-03-27T17:54:20.531Z,102122.19
2019-03-27T17:56:44.151Z,102127.22
2019-03-27T17:59:14.566Z,102133.59
2019-03-27T18:01:45.109Z,102132.56
2019-03-27T18:04:15.386Z,102135.39
2019-03-27T18:06:45.685Z,102135.05
2019-03-27T18:09:16.258Z,102134.11
2019-03-27T18:11:46.619Z,102136.68
2019-03-27T18:14:17.059Z,102135.57
2019-03-27T18:16:48.128Z,102133.62
2019-03-27T18:19:18.445Z,102139.57
2019-03-27T18:21:48.697Z,102142.23
2019-03-27T18:24:19.058Z,102145.05
2019-03-27T18:26:49.364Z,102148.52
2019-03-27T18:29:22.577Z,102145.40
2019-03-27T18:31:52.890Z,102147.91
2019-03-27T18:34:23.879Z,102152.92
2019-03-27T18:36:54.974Z,102150.03
2019-03-27T18:39:31.074Z,102160.66
2019-03-27T18:42:07.524Z,102163.75
2019-03-27T18:44:37.896Z,102165.02
2019-03-27T18:47:08.632Z,102168.14
2019-03-27T18:49:39.319Z,102163.81
2019-03-27T18:52:09.639Z,102171.77
2019-03-27T18:54:40.819Z,102181.23
2019-03-27T18:57:11.073Z,102175.94
2019-03-27T18:59:42.102Z,102187.75
2019-03-27T19:02:12.380Z,102189.03
2019-03-27T19:04:42.795Z,102191.98
2019-03-27T19:07:13.788Z,102194.92
2019-03-27T19:09:44.144Z,102190.36
2019-03-27T19:12:14.645Z,102195.73
2019-03-27T19:14:45.327Z,102200.94
2019-03-27T19:17:16.355Z,102207.09
2019-03-27T19:19:46.664Z,102209.84
2019-03-27T19:22:17.380Z,102205.23
2019-03-27T19:24:47.664Z,102212.42
2019-03-27T19:27:17.954Z,102211.05
2019-03-27T19:29:48.852Z,102208.84
2019-03-27T19:32:19.182Z,102218.27
2019-03-27T19:34:51.127Z,102216.69
2019-03-27T19:37:21.943Z,102212.97
2019-03-27T19:39:53.218Z,102211.78
2019-03-27T19:42:24.019Z,102217.24
2019-03-27T19:44:54.562Z,102211.95
2019-03-27T19:47:24.846Z,102214.08
2019-03-27T19:49:55.523Z,102215.57
2019-03-27T19:52:26.137Z,102208.63
2019-03-27T19:54:56.483Z,102206.50
2019-03-27T19:57:27.140Z,102216.03
2019-03-27T19:59:59.879Z,102216.30
2019-03-27T20:06:04.960Z,102222.36
2019-03-27T20:08:35.894Z,102219.75
2019-03-27T20:11:06.500Z,102219.76
2019-03-27T20:13:36.908Z,102229.20
2019-03-27T20:16:10.327Z,102225.45
2019-03-27T20:18:40.902Z,102227.44
2019-03-27T20:21:11.316Z,102227.80
2019-03-27T20:23:41.630Z,102232.06
2019-03-27T20:26:12.475Z,102225.45
2019-03-27T20:28:42.776Z,102228.45
2019-03-27T20:31:13.434Z,102229.97
2019-03-27T20:33:43.851Z,102229.56
2019-03-27T20:36:14.230Z,102228.22
2019-03-27T20:39:11.523Z,102231.95
2019-03-27T20:41:44.004Z,102229.20
2019-03-27T20:44:14.975Z,102230.22
2019-03-27T20:46:45.390Z,102233.72
2019-03-27T20:49:16.311Z,102235.91
2019-03-27T20:51:46.944Z,102229.23
2019-03-27T20:54:17.324Z,102229.15
2019-03-27T20:56:47.937Z,102230.49
2019-03-27T20:59:19.088Z,102231.25
2019-03-27T21:01:49.433Z,102232.42
2019-03-27T21:04:19.884Z,102236.13
2019-03-27T21:06:51.408Z,102239.66
2019-03-27T21:09:22.041Z,102241.05
2019-03-27T21:11:55.947Z,102239.53
2019-03-27T21:14:24.670Z,102244.80
2019-03-27T21:16:55.681Z,102245.17
2019-03-27T21:19:25.915Z,102242.56
2019-03-27T21:21:56.259Z,102249.20
2019-03-27T21:24:27.089Z,102245.88
2019-03-27T21:26:57.310Z,102249.95
2019-03-27T21:29:27.655Z,102244.30
2019-03-27T21:31:58.171Z,102249.20
2019-03-27T21:34:28.326Z,102248.85
2019-03-27T21:36:58.533Z,102244.14
2019-03-27T21:39:29.060Z,102246.77
2019-03-27T21:41:58.992Z,102242.83
2019-03-27T21:44:28.995Z,102246.80
2019-03-27T21:46:59.274Z,102243.82
2019-03-27T21:49:29.182Z,102244.02
2019-03-27T21:51:59.005Z,102242.83
2019-03-27T21:54:29.113Z,102245.08
2019-03-27T21:56:58.903Z,102250.59
2019-03-27T21:59:28.705Z,102257.61
2019-03-27T22:02:00.638Z,102250.71
2019-03-27T22:04:30.416Z,102255.20
2019-03-27T22:07:00.283Z,102259.65
2019-03-27T22:09:30.466Z,102258.08
2019-03-27T22:12:00.243Z,102257.13
2019-03-27T22:14:30.073Z,102259.83
2019-03-27T22:17:00.305Z,102260.87
2019-03-27T22:19:30.091Z,102257.24
2019-03-27T22:21:59.934Z,102262.69
2019-03-27T22:24:30.018Z,102269.20
2019-03-27T22:27:00.181Z,102263.19
2019-03-27T22:29:30.094Z,102263.52
2019-03-27T22:32:00.167Z,102265.70
2019-03-27T22:34:29.945Z,102267.78
2019-03-27T22:36:59.742Z,102275.50
2019-03-27T22:39:29.786Z,102271.90
2019-03-27T22:41:59.541Z,102276.02
2019-03-27T22:44:29.349Z,102275.19
2019-03-27T22:46:59.423Z,102283.13
2019-03-27T22:49:29.220Z,102281.09
2019-03-27T22:51:59.051Z,102281.22
2019-03-27T22:54:29.163Z,102284.30
2019-03-27T22:56:58.979Z,102287.09
2019-03-27T22:59:28.830Z,102285.70
2019-03-27T23:01:58.892Z,102284.22
2019-03-27T23:04:29.518Z,102278.95
2019-03-27T23:06:59.329Z,102287.98
2019-03-27T23:09:29.535Z,102285.20
2019-03-27T23:11:59.311Z,102284.66
2019-03-27T23:14:29.210Z,102283.55
2019-03-27T23:16:59.298Z,102282.73
2019-03-27T23:19:29.073Z,102284.20
2019-03-27T23:21:58.897Z,102284.20
2019-03-27T23:24:28.711Z,102286.78
2019-03-27T23:26:58.500Z,102289.41
2019-03-27T23:29:28.339Z,102286.39
2019-03-27T23:31:58.524Z,102287.05
2019-03-27T23:34:28.296Z,102286.60
2019-03-27T23:36:58.068Z,102282.55
2019-03-27T23:39:28.257Z,102281.36
2019-03-27T23:41:58.274Z,102281.25
2019-03-27T23:44:28.476Z,102284.27
2019-03-27T23:46:58.651Z,102284.03
2019-03-27T23:49:30.513Z,102281.95
2019-03-27T23:52:00.441Z,102279.31
2019-03-27T23:54:30.239Z,102279.55
2019-03-27T23:57:00.041Z,102279.56
2019-03-27T23:59:30.002Z,102274.65
